Terminal Aerodrome Forecast
Issued by NWS Knoxville/Tri Cities, TN

Home | Current Version | Previous Version | Text Only | Print | Product List | Glossary On
Versions: 1 2 3 4 5 6 7 8 9 10 11 12 13 14 15 16 17 18 19 20 21 22 23 24 25 26 27 28 29 30 31 32 33 34 35 36 37 38 39 40 41 42 43
000
FTUS44 KMRX 241408 AAC
TAFTRI
TAF AMD
KTRI 241408Z 2414/2512 27004KT P6SM VCSH BKN025
      TEMPO 2414/2415 BKN009
     FM242000 30006KT P6SM BKN050
     FM250000 00000KT P6SM BKN250
     FM250600 00000KT 4SM BR BKN250
      TEMPO 2508/2512 1 1/2SM BR BKN025=

USA.gov is the U.S. government's official web portal to all federal, state and local government web resources and services.